DIRECCIÓN GENERAL DE AERONÁUTICA CIVIL
DIRECCIÓN METEOROLÓGICA DE CHILE
INFORMACIÓN METAR Y TAF

FIR SANTIAGO

Estación: SCSE
METAR SCSE 280300Z 13007KT CAVOK 11/09 Q1016=

TAF SCSE 272210Z 2800/2824 30005KT CAVOK TX19/2819Z TN09/2810Z BECMG 2804/2806 11004KT TEMPO 2808/2813 VRB02KT SCT012 BECMG 2815/2817 29008KT=

Estación: SCER
NIL=

NIL=

Estación: SCRD
METAR SCRD 272200Z VRB03KT CAVOK 14/06 Q1016=

TAF SCRD 271024Z 2712/2724 VRB02KT CAVOK TX15/2718Z TN09/2712Z BECMG 2715/2717 31008KT=

Estación: SCVM
METAR SCVM 280300Z 24002KT CAVOK 09/07 Q1018=

TAF SCVM 272210Z 2800/2824 15004KT CAVOK TX18/2818Z TN06/2810Z TEMPO 2808/2812 VRB02KT SCT012 BECMG 2815/2817 32008KT=

Estación: SCTB
METAR SCTB 272200Z 00000KT 4000 HZ NSC 20/04 Q1017=

TAF SCTB 271107Z 2712/2724 VRB02KT 5000 HZ NSC TX21/2718Z TN04/2712Z BECMG 2715/2717 22004KT 4000 HZ=

Estación: SCEL
METAR SCEL 280300Z VRB02KT 7000 SKC 11/02 Q1017 NOSIG=

TAF SCEL 272210Z 2800/2824 16005KT CAVOK TX21/2819Z TN04/2810Z BECMG 2802/2804 VRB02KT 8000 NSC TEMPO 2807/2812 4000 HZ BECMG 2815/2817 19008KT 9999 SCT180=

Estación: SCSN
METAR SCSN 280300Z AUTO 11004KT 7000 NCD 06/05 Q1018=

TAF SCSN 271106Z 2712/2724 11004KT 8000 NSC TX15/2718Z TN04/2712Z BECMG 2716/2718 25012KT=

Estación: SCRG
METAR SCRG 272000Z 16009KT CAVOK 21/03 Q1015=

TAF SCRG 271024Z 2712/2724 VRB02KT 5000 HZ NSC TX15/2719Z TN02/2710Z TEMPO 2712/2714 3000 HZ BECMG 2715/2717 19008KT 8000 NSC=

Estación: SCIC
SPECI SCIC 280332Z AUTO 09003KT 2700 BR NCD 03/03 Q1017=

TAF AMD SCIC 271518Z 2716/2724 17006KT 0800 FG BKN002 TX15/278Z TN04/ 2712Z BECMG 2717/2719 20005KT 3000 BR SCT010 BECMG 2719/2721 20010KT CAVOK=

Estación: SCCH
METAR SCCH 272200Z 32002KT 2000 HZ SCT100 05/04 Q1017=

TAF SCCH 271025Z 2712/2724 VRB02KT 2000 BR BKN005 TX14/2718Z TN00/ 2712Z TEMPO 2712/2714 0300 FG BKN003 BECMG 2715/2717 21006KT CAVOK=

Estación: SCIE
METAR SCIE 280300Z 19002KT 8000 NSC 06/06 Q1017=

TAF SCIE 272210Z 2800/2824 23005KT CAVOK TX13/2818Z TN07/2810Z BECMG 2802/2804 33005KT BECMG 2806/2808 01008KT BKN120 BECMG 2810/2812 BKN080 BECMG 2813/2815 02015KT 7000 -SHRA SCT020 BKN040 BECMG 2816/2818 02020KT 4000 RA SCT015 OVC025=

Estación: SCGE
METAR SCGE 272100Z 24003KT 9999 SCT043 12/07 Q1018=

TAF SCGE 271028Z 2712/2724 VRB02KT 0200 FG VV000 TX10/2718Z TN00/ 2712Z TEMPO 2717/2721 19004KT 5000 BR SCT010=


Volver